Time;durP1;ratioP1;P1;durP2;ratioP2;P2;SDS_P1;SDS_P2;PMS_P1;PMS_P2;Temp;Humidity;BMP_temperature;BMP_pressure;BME280_temperature;BME280_humidity;BME280_pressure;Samples;Min_cycle;Max_cycle;Signal;HPM_P1;HPM_P2
2022/09/05 00:02:15;;;;;;;11.85;10.65;;;27.90;99.90;;;;;;4208248;28;20456;-73
2022/09/05 00:04:54;;;;;;;12.27;10.60;;;27.90;99.90;;;;;;4207982;28;20040;-72
2022/09/05 00:07:23;;;;;;;12.25;10.95;;;27.90;99.90;;;;;;4207028;28;20048;-73
2022/09/05 00:10:25;;;;;;;13.80;11.93;;;28.00;99.90;;;;;;4187734;28;20052;-74
2022/09/05 00:12:44;;;;;;;15.82;14.20;;;28.00;99.90;;;;;;4173902;28;20179;-72
2022/09/05 00:15:52;;;;;;;13.82;12.30;;;28.00;99.90;;;;;;4173620;28;20073;-71
2022/09/05 00:18:22;;;;;;;13.82;12.52;;;28.00;99.90;;;;;;4174333;28;20065;-72
2022/09/05 00:21:17;;;;;;;12.05;10.82;;;28.00;99.90;;;;;;4140880;28;20077;-72
2022/09/05 00:24:19;;;;;;;12.32;10.90;;;28.00;99.90;;;;;;4141017;28;20054;-71
2022/09/05 00:27:15;;;;;;;10.65;9.60;;;28.00;99.90;;;;;;4157368;28;20416;-73
2022/09/05 00:29:26;;;;;;;11.32;9.98;;;28.10;99.90;;;;;;4157831;28;20682;-71
2022/09/05 00:32:10;;;;;;;11.07;9.93;;;28.10;99.90;;;;;;4140866;28;20053;-72
2022/09/05 00:34:46;;;;;;;10.93;9.82;;;28.20;99.90;;;;;;4157096;28;20588;-71
2022/09/05 00:36:53;;;;;;;9.95;9.05;;;28.20;99.90;;;;;;4156110;28;20133;-71
2022/09/05 00:39:00;;;;;;;10.23;9.13;;;28.20;99.90;;;;;;4157322;28;20057;-72
2022/09/05 00:41:08;;;;;;;13.48;9.95;;;28.20;99.90;;;;;;4146502;28;20061;-72
2022/09/05 00:43:31;;;;;;;10.15;9.15;;;28.20;99.90;;;;;;4140107;28;20480;-72
2022/09/05 00:46:00;;;;;;;10.88;8.93;;;28.30;99.90;;;;;;4140061;28;20606;-71
2022/09/05 00:48:27;;;;;;;9.63;8.57;;;28.30;99.90;;;;;;4164444;28;20496;-71
2022/09/05 00:50:53;;;;;;;9.50;8.50;;;28.30;99.90;;;;;;4173449;28;20132;-72
2022/09/05 00:53:21;;;;;;;9.40;8.40;;;28.40;99.90;;;;;;4173319;28;20049;-72
2022/09/05 00:56:00;;;;;;;9.48;8.10;;;28.40;99.90;;;;;;4173780;28;20150;-72
2022/09/05 00:58:36;;;;;;;9.45;7.80;;;28.40;99.90;;;;;;4179389;28;20044;-71
2022/09/05 01:00:55;;;;;;;10.05;8.77;;;28.50;99.90;;;;;;4206305;28;20149;-72
2022/09/05 01:03:26;;;;;;;9.45;7.60;;;28.50;99.90;;;;;;4208166;28;20059;-72
2022/09/05 01:06:10;;;;;;;9.35;8.38;;;28.50;99.90;;;;;;4160678;28;20072;-71
2022/09/05 01:08:50;;;;;;;8.95;8.05;;;28.50;99.90;;;;;;4208697;28;20062;-71
2022/09/05 01:11:31;;;;;;;12.30;7.55;;;28.50;99.90;;;;;;4190114;28;20074;-71
2022/09/05 01:14:12;;;;;;;8.25;7.20;;;28.50;99.90;;;;;;4210048;28;20040;-71
2022/09/05 01:16:40;;;;;;;8.40;7.53;;;28.50;99.90;;;;;;4209590;28;20048;-72
2022/09/05 01:19:19;;;;;;;10.90;8.27;;;28.50;99.90;;;;;;4208513;28;20051;-72
2022/09/05 01:21:57;;;;;;;8.98;8.07;;;28.50;99.90;;;;;;4210923;28;20174;-72
2022/09/05 01:24:19;;;;;;;9.93;7.40;;;28.40;99.90;;;;;;4210528;28;20075;-72
2022/09/05 01:26:55;;;;;;;8.20;7.40;;;28.50;99.90;;;;;;4209349;28;20040;-72
2022/09/05 01:29:28;;;;;;;8.90;8.00;;;28.50;99.90;;;;;;4210272;28;20048;-72
2022/09/05 01:31:59;;;;;;;9.65;8.20;;;28.50;99.90;;;;;;4208954;28;20063;-72
2022/09/05 01:34:57;;;;;;;14.52;7.40;;;28.50;99.90;;;;;;4206579;28;20103;-72
2022/09/05 01:37:18;;;;;;;12.73;7.68;;;28.50;99.90;;;;;;4209523;28;20052;-73
2022/09/05 01:40:03;;;;;;;11.23;7.07;;;28.50;99.90;;;;;;4209319;28;20448;-73
2022/09/05 01:42:57;;;;;;;7.78;6.97;;;28.60;99.90;;;;;;4209883;28;20457;-71
2022/09/05 01:45:40;;;;;;;7.88;7.07;;;28.60;99.90;;;;;;4210509;28;20056;-72
2022/09/05 01:48:00;;;;;;;;;;;28.60;99.90;;;;;;4208566;28;20094;-71
2022/09/05 01:50:32;;;;;;;10.27;7.50;;;28.60;99.90;;;;;;4206722;28;20433;-71
2022/09/05 01:52:57;;;;;;;7.68;6.88;;;28.60;99.90;;;;;;4208791;28;20052;-71
2022/09/05 01:55:49;;;;;;;8.90;7.10;;;28.60;99.90;;;;;;4207682;28;20044;-71
2022/09/05 01:58:23;;;;;;;7.78;6.40;;;28.60;99.90;;;;;;4208863;28;20407;-71
2022/09/05 02:00:46;;;;;;;9.40;6.80;;;28.60;99.90;;;;;;4208297;28;20036;-71
2022/09/05 02:03:30;;;;;;;10.43;6.53;;;28.60;99.90;;;;;;4208368;28;20048;-71
2022/09/05 02:06:10;;;;;;;7.65;6.50;;;28.70;99.90;;;;;;4209229;28;20640;-71
2022/09/05 02:08:47;;;;;;;8.23;7.28;;;28.70;99.90;;;;;;4209187;28;20778;-71
2022/09/05 02:11:05;;;;;;;7.82;7.03;;;28.70;99.90;;;;;;4209034;28;20097;-71
2022/09/05 02:13:42;;;;;;;8.80;7.10;;;28.80;99.90;;;;;;4208379;28;20044;-71
2022/09/05 02:16:27;;;;;;;8.15;7.35;;;28.70;99.90;;;;;;4207952;28;20059;-71
2022/09/05 02:19:04;;;;;;;7.78;6.88;;;28.80;99.90;;;;;;4208214;28;20380;-72
2022/09/05 02:21:14;;;;;;;8.85;6.55;;;28.90;99.90;;;;;;4209310;28;20056;-72
2022/09/05 02:23:32;;;;;;;12.32;7.32;;;28.90;99.90;;;;;;4208787;28;20047;-72
2022/09/05 02:26:15;;;;;;;7.55;6.85;;;28.90;99.90;;;;;;4209472;28;20512;-72
2022/09/05 02:29:05;;;;;;;8.70;6.50;;;29.00;99.90;;;;;;4211203;28;20044;-73
2022/09/05 02:31:33;;;;;;;8.02;6.53;;;29.10;99.90;;;;;;4210680;28;20046;-72
2022/09/05 02:34:13;;;;;;;7.72;6.25;;;29.20;99.90;;;;;;4210075;28;20055;-71
2022/09/05 02:36:29;;;;;;;9.68;6.43;;;29.30;99.90;;;;;;4210328;28;20048;-72
2022/09/05 02:38:53;;;;;;;10.15;5.78;;;29.30;99.90;;;;;;4211287;28;20039;-71
2022/09/05 02:41:51;;;;;;;6.10;5.50;;;29.30;99.90;;;;;;4200898;28;20050;-71
2022/09/05 02:44:45;;;;;;;8.40;6.25;;;29.40;99.90;;;;;;4178280;28;20063;-71
2022/09/05 02:47:36;;;;;;;7.97;6.85;;;29.30;99.90;;;;;;4166942;28;20084;-70
2022/09/05 02:50:07;;;;;;;7.43;6.45;;;29.30;99.90;;;;;;4177685;28;20566;-71
2022/09/05 02:52:34;;;;;;;6.90;6.30;;;29.40;99.90;;;;;;4178180;28;20135;-72
2022/09/05 02:54:59;;;;;;;7.28;5.93;;;29.40;99.90;;;;;;4178353;28;20072;-71
2022/09/05 02:57:49;;;;;;;6.97;5.85;;;29.50;99.90;;;;;;4161154;28;20539;-70
2022/09/05 03:00:22;;;;;;;7.90;6.35;;;29.60;99.90;;;;;;4161800;28;20072;-72
2022/09/05 03:03:00;;;;;;;9.20;6.50;;;29.60;99.90;;;;;;4144810;28;20069;-71
2022/09/05 03:05:38;;;;;;;11.60;6.95;;;29.70;99.90;;;;;;4161094;28;20132;-72
2022/09/05 03:08:04;;;;;;;8.75;6.63;;;29.60;99.90;;;;;;4145610;28;20049;-72
2022/09/05 03:10:35;;;;;;;7.30;6.28;;;29.70;99.90;;;;;;4161247;28;20500;-73
2022/09/05 03:13:29;;;;;;;8.45;6.57;;;29.70;99.90;;;;;;4161607;28;20901;-72
2022/09/05 03:16:03;;;;;;;9.98;6.47;;;29.80;99.90;;;;;;4160812;28;20045;-72
2022/09/05 03:18:24;;;;;;;9.50;6.93;;;29.80;99.90;;;;;;4161073;28;20503;-71
2022/09/05 03:21:00;;;;;;;7.65;6.05;;;29.80;99.90;;;;;;4161169;28;20050;-72
2022/09/05 03:23:44;;;;;;;7.60;6.90;;;29.90;99.90;;;;;;4177619;28;20056;-72
2022/09/05 03:26:17;;;;;;;7.38;6.32;;;29.90;99.90;;;;;;4194260;28;20135;-72
2022/09/05 03:28:54;;;;;;;7.93;6.50;;;30.00;99.90;;;;;;4189118;28;20047;-71
2022/09/05 03:31:38;;;;;;;8.25;7.30;;;30.00;99.90;;;;;;4213381;28;20123;-71
2022/09/05 03:34:16;;;;;;;8.50;6.57;;;30.00;99.90;;;;;;4213557;28;20430;-72
2022/09/05 03:36:45;;;;;;;7.50;6.72;;;30.00;99.90;;;;;;4213305;28;20055;-72
2022/09/05 03:39:18;;;;;;;7.30;6.60;;;30.10;99.90;;;;;;4213263;28;20097;-72
2022/09/05 03:41:59;;;;;;;9.35;6.60;;;30.20;99.90;;;;;;4195010;28;20131;-73
2022/09/05 03:44:41;;;;;;;7.25;6.55;;;30.20;99.90;;;;;;4195667;28;20068;-72
2022/09/05 03:47:10;;;;;;;9.35;6.57;;;30.30;99.90;;;;;;4195606;28;20032;-71
2022/09/05 03:49:42;;;;;;;7.38;6.60;;;30.30;99.90;;;;;;4196228;28;20045;-73
2022/09/05 03:52:31;;;;;;;8.13;7.05;;;30.30;99.90;;;;;;4194675;28;20040;-72
2022/09/05 03:55:30;;;;;;;8.43;7.28;;;30.30;99.90;;;;;;4177011;28;20471;-70
2022/09/05 03:58:08;;;;;;;8.20;7.32;;;30.30;99.90;;;;;;4177482;28;20056;-73
2022/09/05 04:00:36;;;;;;;9.75;7.65;;;30.30;99.90;;;;;;4128551;28;20061;-73
2022/09/05 04:03:20;;;;;;;8.20;7.35;;;30.30;99.90;;;;;;4129596;28;20788;-73
2022/09/05 04:06:26;;;;;;;7.65;6.75;;;30.30;99.90;;;;;;4127052;28;20269;-72
2022/09/05 04:09:16;;;;;;;8.82;6.88;;;30.30;99.90;;;;;;4127060;28;20054;-71
2022/09/05 04:11:48;;;;;;;8.00;7.20;;;30.50;99.90;;;;;;4110609;28;20049;-73
2022/09/05 04:13:59;;;;;;;8.80;7.75;;;30.60;99.90;;;;;;4110886;28;20062;-74
2022/09/05 04:16:25;;;;;;;8.57;7.68;;;30.60;99.90;;;;;;4110573;28;20054;-73
2022/09/05 04:18:46;;;;;;;10.35;7.57;;;30.60;99.90;;;;;;4094452;29;20055;-72
2022/09/05 04:21:16;;;;;;;8.98;7.40;;;30.60;99.90;;;;;;4109898;28;20057;-72
2022/09/05 04:23:40;;;;;;;9.73;6.97;;;30.70;99.90;;;;;;4111681;28;20449;-72
2022/09/05 04:26:15;;;;;;;7.60;6.85;;;30.80;99.90;;;;;;4126730;28;20092;-73
2022/09/05 04:28:46;;;;;;;10.95;7.63;;;30.80;99.90;;;;;;4126970;28;20552;-73
2022/09/05 04:31:23;;;;;;;8.93;7.25;;;30.90;99.90;;;;;;4126549;28;20066;-72
2022/09/05 04:33:46;;;;;;;8.68;6.95;;;30.90;99.90;;;;;;4126908;28;20133;-73
2022/09/05 04:36:15;;;;;;;8.45;7.00;;;31.00;99.90;;;;;;4126293;28;20145;-72
2022/09/05 04:38:37;;;;;;;10.20;7.00;;;31.00;99.90;;;;;;4151522;28;20083;-70
2022/09/05 04:41:15;;;;;;;7.72;7.00;;;31.00;99.90;;;;;;4191861;28;20098;-72
2022/09/05 04:43:52;;;;;;;8.80;6.43;;;31.10;99.90;;;;;;4196955;28;20736;-72
2022/09/05 04:46:14;;;;;;;7.40;6.70;;;31.20;99.90;;;;;;4189456;28;20168;-72
2022/09/05 04:48:35;;;;;;;7.28;6.57;;;31.20;99.90;;;;;;4203120;28;20048;-72
2022/09/05 04:51:05;;;;;;;7.35;6.53;;;31.20;99.90;;;;;;4208455;28;20067;-73
2022/09/05 04:53:48;;;;;;;8.85;7.07;;;31.30;99.90;;;;;;4207920;28;20056;-72
2022/09/05 04:55:57;;;;;;;9.18;7.03;;;31.30;99.90;;;;;;4208592;28;20047;-73
2022/09/05 04:58:09;;;;;;;17.27;10.77;;;31.20;99.90;;;;;;4205509;28;20122;-70
2022/09/05 05:00:16;;;;;;;;;;;31.20;99.90;;;;;;4206989;28;20052;-71
2022/09/05 05:02:50;;;;;;;10.82;7.90;;;31.20;99.90;;;;;;4205216;28;19928;-73
2022/09/05 05:05:34;;;;;;;;;;;31.20;99.90;;;;;;4208573;28;20043;-71
2022/09/05 05:08:11;;;;;;;10.90;6.87;;;31.20;99.90;;;;;;4213656;28;19923;-72
2022/09/05 05:10:42;;;;;;;9.40;6.57;;;31.10;99.90;;;;;;4212346;28;20101;-73
2022/09/05 05:13:33;;;;;;;8.68;6.13;;;31.10;99.90;;;;;;4210888;28;20139;-73
2022/09/05 05:16:12;;;;;;;10.45;6.40;;;31.30;99.90;;;;;;4210440;28;20056;-74
2022/09/05 05:19:06;;;;;;;9.55;6.72;;;31.50;99.90;;;;;;4174285;28;20060;-72
2022/09/05 05:21:26;;;;;;;7.28;5.78;;;31.60;99.90;;;;;;4159672;28;20041;-75
2022/09/05 05:23:39;;;;;;;6.47;5.88;;;31.70;99.90;;;;;;4174027;28;20057;-72
2022/09/05 05:25:52;;;;;;;8.00;6.03;;;31.80;99.90;;;;;;4176340;28;20033;-74
2022/09/05 05:28:32;;;;;;;8.05;6.15;;;31.90;99.90;;;;;;4163084;28;20121;-74
2022/09/05 05:30:36;;;;;;;8.25;7.45;;;32.10;99.90;;;;;;4178662;28;20111;-74
2022/09/05 05:32:43;;;;;;;8.60;7.70;;;32.00;99.90;;;;;;4179082;28;20045;-74
2022/09/05 05:34:54;;;;;;;7.95;7.07;;;32.00;99.90;;;;;;4162756;28;20720;-73
2022/09/05 05:37:32;;;;;;;7.97;7.28;;;32.10;99.90;;;;;;4162108;28;20041;-74
2022/09/05 05:39:45;;;;;;;8.10;7.32;;;32.20;99.90;;;;;;4162191;28;20045;-74
2022/09/05 05:41:52;;;;;;;7.38;6.50;;;32.20;99.90;;;;;;4162810;28;20048;-74
2022/09/05 05:43:58;;;;;;;7.75;6.80;;;32.30;99.90;;;;;;4178635;28;20041;-74
2022/09/05 05:46:04;;;;;;;7.95;6.20;;;32.30;99.90;;;;;;4177547;28;20055;-74
2022/09/05 05:48:32;;;;;;;7.40;6.63;;;32.30;99.90;;;;;;4177482;28;20068;-73
2022/09/05 05:50:51;;;;;;;9.68;6.90;;;32.30;99.90;;;;;;4179595;28;20041;-74
2022/09/05 05:53:29;;;;;;;7.53;6.82;;;32.30;99.90;;;;;;4179475;28;20055;-75
2022/09/05 05:56:12;;;;;;;7.25;6.40;;;32.50;99.90;;;;;;4189198;28;20047;-74
2022/09/05 05:58:57;;;;;;;8.50;6.80;;;32.50;99.90;;;;;;4213793;28;20591;-74
2022/09/05 06:01:29;;;;;;;8.63;6.78;;;32.40;99.90;;;;;;4207834;28;20098;-71
2022/09/05 06:04:06;;;;;;;8.38;6.88;;;32.50;99.90;;;;;;4208237;28;20074;-75
2022/09/05 06:06:32;;;;;;;8.40;7.18;;;32.70;99.90;;;;;;4206514;28;20054;-73
2022/09/05 06:09:14;;;;;;;8.65;7.00;;;32.90;99.90;;;;;;4208110;28;20580;-74
2022/09/05 06:12:15;;;;;;;7.80;6.95;;;33.00;99.90;;;;;;4209358;28;20040;-75
2022/09/05 06:15:06;;;;;;;8.27;6.50;;;33.10;99.90;;;;;;4210331;28;20101;-75
2022/09/05 06:17:41;;;;;;;8.05;6.68;;;33.00;99.90;;;;;;4176896;28;20155;-75
2022/09/05 06:20:05;;;;;;;7.78;6.97;;;33.10;99.90;;;;;;4212034;28;20590;-72
2022/09/05 06:23:08;;;;;;;8.75;7.15;;;33.20;99.90;;;;;;4211478;28;20493;-73
2022/09/05 06:26:01;;;;;;;8.02;6.95;;;33.20;99.90;;;;;;4169059;28;20825;-74
2022/09/05 06:28:39;;;;;;;7.18;6.40;;;33.40;99.90;;;;;;4167278;28;20572;-73
2022/09/05 06:31:09;;;;;;;8.45;6.43;;;33.40;99.90;;;;;;4177410;28;20073;-74
2022/09/05 06:33:59;;;;;;;8.35;6.70;;;33.50;99.90;;;;;;4163355;28;20547;-73
2022/09/05 06:36:32;;;;;;;6.53;5.85;;;33.60;99.90;;;;;;4160070;28;20068;-74
2022/09/05 06:39:02;;;;;;;6.63;6.00;;;33.70;98.80;;;;;;4168448;28;20053;-74
2022/09/05 06:41:36;;;;;;;11.00;6.70;;;33.80;98.40;;;;;;4172942;28;20057;-73
2022/09/05 06:44:07;;;;;;;7.20;6.30;;;33.70;99.30;;;;;;4160151;28;20463;-73
2022/09/05 06:46:31;;;;;;;6.95;6.25;;;33.60;99.10;;;;;;4176279;28;20041;-74
2022/09/05 06:49:09;;;;;;;6.78;6.18;;;33.40;99.90;;;;;;4171427;28;20071;-74
2022/09/05 06:51:56;;;;;;;6.75;6.15;;;33.30;99.90;;;;;;4176036;28;20033;-74
2022/09/05 06:54:53;;;;;;;7.90;6.22;;;33.50;99.90;;;;;;4175346;28;20052;-74
2022/09/05 06:57:34;;;;;;;8.38;6.10;;;33.50;99.70;;;;;;4160283;28;20144;-73
2022/09/05 07:00:02;;;;;;;6.82;6.22;;;33.40;99.20;;;;;;4159654;28;20528;-74
2022/09/05 07:02:39;;;;;;;6.15;5.53;;;33.40;99.00;;;;;;4163972;28;20076;-74
2022/09/05 07:05:29;;;;;;;6.50;5.90;;;33.30;99.50;;;;;;4207578;28;20058;-74
2022/09/05 07:07:53;;;;;;;8.32;6.45;;;33.20;99.70;;;;;;4194763;28;20052;-74
2022/09/05 07:10:03;;;;;;;7.47;6.65;;;33.20;99.80;;;;;;4195308;28;20048;-74
2022/09/05 07:12:54;;;;;;;7.65;6.35;;;33.20;99.80;;;;;;4194596;28;20044;-74
2022/09/05 07:15:38;;;;;;;7.55;6.35;;;33.20;99.70;;;;;;4196099;28;20090;-74
2022/09/05 07:18:15;;;;;;;8.35;6.47;;;33.20;99.40;;;;;;4195777;28;20105;-74
2022/09/05 07:20:34;;;;;;;9.55;6.68;;;33.30;99.40;;;;;;4194121;28;20048;-74
2022/09/05 07:23:11;;;;;;;6.90;6.20;;;33.30;99.40;;;;;;4196239;28;20040;-73
2022/09/05 07:25:36;;;;;;;8.02;5.97;;;33.30;99.40;;;;;;4209918;28;20123;-74
2022/09/05 07:27:59;;;;;;;7.38;6.20;;;33.30;99.50;;;;;;4209285;28;20048;-73
2022/09/05 07:30:24;;;;;;;10.15;6.45;;;33.20;99.60;;;;;;4194399;28;20698;-73
2022/09/05 07:32:30;;;;;;;7.38;5.88;;;33.20;99.50;;;;;;4200014;28;20051;-73
2022/09/05 07:34:35;;;;;;;7.05;6.40;;;33.10;99.50;;;;;;4210532;28;20048;-74
2022/09/05 07:36:42;;;;;;;8.02;5.97;;;33.10;99.10;;;;;;4208605;28;20056;-74
2022/09/05 07:38:50;;;;;;;8.10;6.40;;;33.00;99.50;;;;;;4202417;28;20052;-73
2022/09/05 07:41:26;;;;;;;8.73;6.32;;;33.10;99.70;;;;;;4193777;28;20052;-74
2022/09/05 07:43:38;;;;;;;7.05;6.25;;;33.00;99.70;;;;;;4193406;28;20052;-74
2022/09/05 07:46:10;;;;;;;10.33;6.90;;;33.10;99.60;;;;;;4193753;28;20967;-74
2022/09/05 07:48:24;;;;;;;8.95;6.68;;;33.00;99.50;;;;;;4191878;28;20078;-74
2022/09/05 07:50:53;;;;;;;9.13;6.82;;;33.00;98.90;;;;;;4193161;28;20124;-74
2022/09/05 07:53:18;;;;;;;7.22;6.53;;;33.00;98.80;;;;;;4191550;28;20036;-74
2022/09/05 07:55:48;;;;;;;7.80;6.53;;;32.90;98.90;;;;;;4140940;28;20157;-73
2022/09/05 07:58:14;;;;;;;10.07;6.93;;;32.80;99.20;;;;;;4156829;28;20057;-73
2022/09/05 08:00:20;;;;;;;6.95;6.35;;;32.80;99.50;;;;;;4156887;28;20498;-74
2022/09/05 08:02:34;;;;;;;11.18;7.05;;;32.80;99.60;;;;;;4164676;28;20063;-76
2022/09/05 08:04:40;;;;;;;13.00;8.23;;;32.80;99.60;;;;;;4177553;28;20105;-75
2022/09/05 08:06:47;;;;;;;10.30;7.28;;;32.70;99.30;;;;;;4164071;28;20052;-76
2022/09/05 08:09:21;;;;;;;9.00;6.60;;;32.60;99.30;;;;;;4135310;28;20811;-75
2022/09/05 08:11:50;;;;;;;9.48;6.45;;;32.30;99.30;;;;;;4148046;28;20461;-75
2022/09/05 08:14:25;;;;;;;8.20;7.40;;;32.20;99.80;;;;;;4148168;28;20448;-76
2022/09/05 08:16:50;;;;;;;7.63;6.90;;;32.20;99.90;;;;;;4147912;28;20094;-74
2022/09/05 08:19:22;;;;;;;6.80;6.10;;;32.00;99.90;;;;;;4148034;28;20057;-75
2022/09/05 08:21:40;;;;;;;9.82;6.82;;;31.90;99.90;;;;;;4147942;28;20091;-76
2022/09/05 08:23:54;;;;;;;7.78;5.55;;;31.80;99.90;;;;;;4146736;28;20042;-75
2022/09/05 08:26:14;;;;;;;7.75;5.57;;;31.20;99.90;;;;;;4147136;28;20508;-76
2022/09/05 08:28:43;;;;;;;7.65;5.40;;;30.80;99.90;;;;;;4130518;28;20721;-76
2022/09/05 08:31:05;;;;;;;7.15;5.20;;;30.60;99.90;;;;;;4147399;28;20128;-75
2022/09/05 08:33:13;;;;;;;7.07;5.13;;;30.40;99.90;;;;;;4156908;28;20040;-75
2022/09/05 08:35:32;;;;;;;5.82;5.00;;;30.40;99.90;;;;;;4162151;28;20532;-75
2022/09/05 08:37:39;;;;;;;7.60;5.65;;;30.40;99.90;;;;;;4159728;28;20053;-76
2022/09/05 08:39:43;;;;;;;8.55;6.30;;;30.30;99.90;;;;;;4182978;28;20060;-75
2022/09/05 08:42:10;;;;;;;8.05;6.03;;;30.20;99.90;;;;;;4179198;28;20163;-76
2022/09/05 08:44:33;;;;;;;7.25;6.25;;;30.00;99.90;;;;;;4185173;28;20616;-75
2022/09/05 08:47:22;;;;;;;11.80;6.05;;;30.00;99.90;;;;;;4186763;28;20562;-75
2022/09/05 08:49:53;;;;;;;6.68;5.78;;;29.90;99.90;;;;;;4204777;28;20129;-76
2022/09/05 08:52:31;;;;;;;6.95;5.93;;;30.00;99.90;;;;;;4209212;28;20131;-75
2022/09/05 08:54:57;;;;;;;8.35;5.30;;;30.00;99.90;;;;;;4202332;28;20070;-75
2022/09/05 08:57:32;;;;;;;6.43;5.32;;;29.80;99.90;;;;;;4194092;28;20052;-75
2022/09/05 09:00:04;;;;;;;8.60;6.55;;;29.80;99.90;;;;;;4192727;28;20044;-75
2022/09/05 09:03:03;;;;;;;8.10;6.50;;;30.00;99.90;;;;;;4197539;28;20052;-74
2022/09/05 09:05:21;;;;;;;6.78;5.35;;;30.20;99.90;;;;;;4208761;28;20575;-75
2022/09/05 09:08:11;;;;;;;7.47;5.63;;;30.30;99.90;;;;;;4210499;28;20036;-74
2022/09/05 09:10:47;;;;;;;6.47;5.05;;;30.50;99.90;;;;;;4209178;28;20819;-75
2022/09/05 09:13:05;;;;;;;6.15;5.45;;;30.30;99.90;;;;;;4209072;28;20047;-76
2022/09/05 09:15:27;;;;;;;6.40;5.18;;;30.40;99.90;;;;;;4209836;28;20119;-74
2022/09/05 09:17:51;;;;;;;8.65;5.45;;;30.40;99.90;;;;;;4209245;28;20664;-75
2022/09/05 09:20:16;;;;;;;6.97;5.68;;;30.40;99.90;;;;;;4209379;28;20170;-76
2022/09/05 09:22:58;;;;;;;9.90;8.80;;;30.40;99.90;;;;;;4208978;28;20060;-75
2022/09/05 09:25:19;;;;;;;8.10;6.90;;;30.50;99.90;;;;;;4201150;28;20036;-75
2022/09/05 09:27:55;;;;;;;8.48;5.22;;;30.80;99.90;;;;;;4209414;28;20038;-75
2022/09/05 09:30:20;;;;;;;8.48;5.20;;;30.50;99.90;;;;;;4209576;28;20131;-75
2022/09/05 09:32:28;;;;;;;10.07;6.80;;;30.60;99.90;;;;;;4208632;28;20051;-75
2022/09/05 09:35:12;;;;;;;8.65;6.32;;;30.70;99.90;;;;;;4211468;28;20048;-74
2022/09/05 09:37:56;;;;;;;11.43;5.38;;;30.70;99.90;;;;;;4191702;28;20495;-76
2022/09/05 09:40:23;;;;;;;11.05;5.50;;;30.60;99.90;;;;;;4205100;28;20570;-75
2022/09/05 09:43:01;;;;;;;9.85;5.50;;;30.60;99.90;;;;;;4190507;28;20060;-68
2022/09/05 09:45:50;;;;;;;6.43;5.28;;;30.60;99.90;;;;;;4200299;28;20077;-70
2022/09/05 09:48:28;;;;;;;7.00;5.05;;;30.70;99.90;;;;;;4203786;28;20048;-71
2022/09/05 09:51:00;;;;;;;8.82;5.28;;;30.80;99.90;;;;;;4206252;28;20056;-70
2022/09/05 09:53:38;;;;;;;8.73;5.45;;;31.00;99.90;;;;;;4206970;28;20044;-70
2022/09/05 09:56:17;;;;;;;7.38;5.57;;;31.00;99.90;;;;;;4207148;28;20756;-71
2022/09/05 09:58:54;;;;;;;7.97;6.15;;;30.90;99.90;;;;;;4205322;28;20055;-71
2022/09/05 10:01:31;;;;;;;6.93;5.22;;;30.90;99.90;;;;;;4204873;28;20133;-70
2022/09/05 10:04:05;;;;;;;7.30;5.18;;;30.90;99.90;;;;;;4204809;28;20043;-70
2022/09/05 10:07:11;;;;;;;6.72;5.25;;;31.10;99.90;;;;;;4185231;28;20197;-70
2022/09/05 10:10:04;;;;;;;6.93;4.95;;;31.10;99.90;;;;;;4172714;28;20781;-68
2022/09/05 10:13:04;;;;;;;7.00;5.20;;;31.10;99.90;;;;;;4168810;28;20077;-68
2022/09/05 10:15:38;;;;;;;7.47;5.13;;;31.10;99.90;;;;;;4166682;28;20160;-70
2022/09/05 10:18:26;;;;;;;7.75;5.07;;;31.10;99.90;;;;;;4169055;28;20167;-69
2022/09/05 10:21:05;;;;;;;6.18;5.30;;;30.90;99.90;;;;;;4166113;28;20044;-70
2022/09/05 10:23:44;;;;;;;8.13;4.38;;;30.80;99.90;;;;;;4169123;28;20609;-70
2022/09/05 10:26:13;;;;;;;6.70;4.53;;;30.70;99.90;;;;;;4152483;28;20054;-70
2022/09/05 10:28:49;;;;;;;7.10;4.40;;;30.70;99.90;;;;;;4166379;28;20701;-70
2022/09/05 10:31:18;;;;;;;6.15;4.28;;;30.50;99.90;;;;;;4135779;28;20080;-70
2022/09/05 10:33:58;;;;;;;6.55;4.43;;;30.40;99.90;;;;;;4155388;28;20033;-70
2022/09/05 10:36:29;;;;;;;7.38;4.10;;;30.40;99.90;;;;;;4169103;28;20093;-70
2022/09/05 10:38:42;;;;;;;5.20;4.03;;;30.40;99.90;;;;;;4148843;28;20077;-69
2022/09/05 10:40:52;;;;;;;6.50;3.38;;;30.50;99.90;;;;;;4151114;28;20888;-70
2022/09/05 10:43:28;;;;;;;7.15;3.95;;;30.50;99.90;;;;;;4168915;28;20088;-70
2022/09/05 10:46:03;;;;;;;9.25;4.47;;;30.50;99.90;;;;;;4185074;28;20040;-71
2022/09/05 10:48:40;;;;;;;7.10;4.90;;;30.40;99.90;;;;;;4170586;28;21082;-70
2022/09/05 10:51:09;;;;;;;8.43;5.10;;;30.40;99.90;;;;;;4199501;28;20173;-71
2022/09/05 10:53:48;;;;;;;7.47;4.88;;;30.40;99.90;;;;;;4204719;28;20388;-71
2022/09/05 10:56:11;;;;;;;11.43;5.68;;;30.30;99.90;;;;;;4169204;28;20056;-71
2022/09/05 10:58:40;;;;;;;9.75;6.32;;;30.20;99.90;;;;;;4205399;28;20097;-71
2022/09/05 11:01:28;;;;;;;14.55;7.13;;;30.10;99.90;;;;;;4207369;28;20044;-71
2022/09/05 11:04:32;;;;;;;17.80;8.05;;;30.00;99.90;;;;;;4206689;28;20094;-72
2022/09/05 11:06:53;;;;;;;12.80;6.80;;;30.10;99.90;;;;;;4206711;28;20059;-71
2022/09/05 11:09:20;;;;;;;12.40;7.10;;;30.00;99.90;;;;;;4207923;28;20048;-71
2022/09/05 11:11:26;;;;;;;16.02;7.72;;;29.80;99.90;;;;;;4207429;28;20048;-71
2022/09/05 11:13:49;;;;;;;9.32;6.63;;;29.90;99.90;;;;;;4207420;28;20118;-71
2022/09/05 11:16:17;;;;;;;7.88;5.68;;;29.80;99.90;;;;;;4206778;28;20078;-69
2022/09/05 11:18:51;;;;;;;10.93;5.70;;;29.80;99.90;;;;;;4206188;28;20059;-71
2022/09/05 11:21:46;;;;;;;8.38;5.97;;;29.80;99.90;;;;;;4207640;28;20761;-71
2022/09/05 11:23:57;;;;;;;9.48;5.50;;;29.70;99.90;;;;;;4207326;28;20047;-71
2022/09/05 11:26:07;;;;;;;8.52;5.55;;;29.70;99.90;;;;;;4203372;28;20101;-70
2022/09/05 11:28:17;;;;;;;13.57;5.55;;;29.60;99.90;;;;;;4206472;28;20038;-70
2022/09/05 11:30:32;;;;;;;9.05;5.70;;;29.60;99.90;;;;;;4172212;28;20040;-72
2022/09/05 11:33:08;;;;;;;8.48;5.47;;;29.60;99.90;;;;;;4209306;28;20131;-71
2022/09/05 11:35:36;;;;;;;7.55;5.50;;;29.60;99.90;;;;;;4208998;28;20052;-70
2022/09/05 11:38:42;;;;;;;6.80;5.47;;;29.50;99.90;;;;;;4172988;28;20052;-70
2022/09/05 11:41:39;;;;;;;7.35;5.80;;;29.60;99.90;;;;;;4164147;28;20051;-70
2022/09/05 11:44:09;;;;;;;7.18;5.38;;;29.40;99.90;;;;;;4150485;28;20152;-70
2022/09/05 11:46:50;;;;;;;7.75;5.13;;;29.50;99.90;;;;;;4171744;28;20049;-70
2022/09/05 11:49:21;;;;;;;7.15;5.40;;;29.50;99.90;;;;;;4170337;28;20049;-71
2022/09/05 11:51:51;;;;;;;8.57;5.30;;;29.30;99.90;;;;;;4169959;28;20040;-70
2022/09/05 11:54:20;;;;;;;7.00;5.28;;;29.40;99.90;;;;;;4171491;28;20057;-71
2022/09/05 11:56:47;;;;;;;7.95;4.90;;;29.30;99.90;;;;;;4170800;28;20045;-71
2022/09/05 11:59:06;;;;;;;6.65;5.05;;;29.40;99.90;;;;;;4170191;28;20052;-71
2022/09/05 12:01:41;;;;;;;10.05;4.85;;;29.20;99.90;;;;;;4170215;28;20053;-71
2022/09/05 12:04:32;;;;;;;6.70;4.75;;;29.20;99.90;;;;;;4170135;28;20817;-71
2022/09/05 12:07:09;;;;;;;7.82;5.22;;;29.20;99.90;;;;;;4171026;28;20403;-71
2022/09/05 12:09:59;;;;;;;5.55;4.93;;;29.20;99.90;;;;;;4170770;28;20037;-70
2022/09/05 12:12:31;;;;;;;7.25;4.75;;;29.30;99.90;;;;;;4168454;28;20037;-71
2022/09/05 12:15:00;;;;;;;5.60;4.30;;;29.20;99.90;;;;;;4168944;28;20357;-72
2022/09/05 12:17:33;;;;;;;5.00;3.25;;;29.20;99.90;;;;;;4205435;28;20526;-72
2022/09/05 12:19:55;;;;;;;3.72;3.17;;;29.20;99.90;;;;;;4207595;28;20546;-72
2022/09/05 12:22:32;;;;;;;5.15;3.05;;;29.20;99.90;;;;;;4206038;28;20052;-70
2022/09/05 12:25:06;;;;;;;3.67;2.72;;;29.20;99.90;;;;;;4207097;28;20087;-71
2022/09/05 12:27:36;;;;;;;4.63;2.70;;;29.20;99.90;;;;;;4174617;28;20051;-71
2022/09/05 12:29:55;;;;;;;4.05;2.95;;;29.10;99.90;;;;;;4186216;28;20586;-71
2022/09/05 12:32:05;;;;;;;4.90;3.10;;;29.10;99.90;;;;;;4187812;28;20147;-71
2022/09/05 12:34:51;;;;;;;4.25;2.38;;;29.00;99.90;;;;;;4170865;28;20203;-70
2022/09/05 12:37:35;;;;;;;;;;;29.00;99.90;;;;;;4122326;28;20062;-70
2022/09/05 12:40:17;;;;;;;3.22;2.60;;;29.00;99.90;;;;;;4074892;29;19926;-71
2022/09/05 12:43:02;;;;;;;3.55;2.72;;;28.90;99.90;;;;;;4075029;29;20079;-71
2022/09/05 12:45:46;;;;;;;4.75;3.00;;;29.00;99.90;;;;;;4075645;29;20790;-72
2022/09/05 12:48:32;;;;;;;3.58;2.90;;;29.00;99.90;;;;;;4076427;29;20086;-71
2022/09/05 12:51:06;;;;;;;4.78;3.00;;;29.00;99.90;;;;;;4076354;29;20047;-72
2022/09/05 12:53:14;;;;;;;4.53;2.92;;;28.70;99.90;;;;;;4080462;29;20078;-71
2022/09/05 12:55:46;;;;;;;4.32;2.88;;;28.80;99.90;;;;;;4075527;28;20109;-71
2022/09/05 12:58:27;;;;;;;4.90;3.47;;;28.80;99.90;;;;;;4072952;29;21072;-71
2022/09/05 13:00:58;;;;;;;4.22;3.80;;;28.90;99.90;;;;;;4072974;29;20063;-71
2022/09/05 13:03:26;;;;;;;3.67;3.22;;;28.70;99.90;;;;;;4077359;29;20052;-71
2022/09/05 13:06:04;;;;;;;4.38;3.83;;;28.80;99.90;;;;;;4098130;28;20140;-71
2022/09/05 13:08:10;;;;;;;4.68;3.47;;;28.80;99.90;;;;;;4139771;28;20648;-72
2022/09/05 13:10:21;;;;;;;5.15;3.15;;;28.80;99.90;;;;;;4139586;28;20062;-71